sensor_id;sensor_type;location;lat;lon;timestamp;pressure;altitude;pressure_sealevel;temperature;humidity
10470;BME280;5282;47.052;15.458;2024-03-08T00:01:56;97801.75;;;2.68;100.00
10470;BME280;5282;47.052;15.458;2024-03-08T00:04:23;97804.56;;;2.78;100.00
10470;BME280;5282;47.052;15.458;2024-03-08T00:06:52;97803.72;;;2.77;100.00
10470;BME280;5282;47.052;15.458;2024-03-08T00:09:21;97803.94;;;2.74;100.00
10470;BME280;5282;47.052;15.458;2024-03-08T00:11:48;97798.78;;;2.60;100.00
10470;BME280;5282;47.052;15.458;2024-03-08T00:14:16;97795.88;;;2.39;100.00
10470;BME280;5282;47.052;15.458;2024-03-08T00:16:43;97798.31;;;2.29;100.00
10470;BME280;5282;47.052;15.458;2024-03-08T00:19:10;97796.94;;;2.23;100.00
10470;BME280;5282;47.052;15.458;2024-03-08T00:21:38;97805.56;;;2.14;100.00
10470;BME280;5282;47.052;15.458;2024-03-08T00:24:07;97797.50;;;2.15;100.00
10470;BME280;5282;47.052;15.458;2024-03-08T00:26:34;97802.91;;;2.14;100.00
10470;BME280;5282;47.052;15.458;2024-03-08T00:29:02;97798.69;;;2.11;100.00
10470;BME280;5282;47.052;15.458;2024-03-08T00:31:29;97796.88;;;1.99;100.00
10470;BME280;5282;47.052;15.458;2024-03-08T00:33:57;97801.16;;;1.89;100.00
10470;BME280;5282;47.052;15.458;2024-03-08T00:36:25;97793.06;;;1.90;100.00
10470;BME280;5282;47.052;15.458;2024-03-08T00:38:55;97798.03;;;1.95;100.00
10470;BME280;5282;47.052;15.458;2024-03-08T00:41:24;97791.56;;;1.99;100.00
10470;BME280;5282;47.052;15.458;2024-03-08T00:43:52;97784.88;;;2.06;100.00
10470;BME280;5282;47.052;15.458;2024-03-08T00:46:19;97791.75;;;2.09;100.00
10470;BME280;5282;47.052;15.458;2024-03-08T00:48:46;97786.66;;;1.93;100.00
10470;BME280;5282;47.052;15.458;2024-03-08T00:51:13;97783.72;;;1.72;100.00
10470;BME280;5282;47.052;15.458;2024-03-08T00:53:42;97776.69;;;1.83;100.00
10470;BME280;5282;47.052;15.458;2024-03-08T00:56:09;97785.09;;;1.90;100.00
10470;BME280;5282;47.052;15.458;2024-03-08T00:58:37;97782.97;;;1.95;100.00
10470;BME280;5282;47.052;15.458;2024-03-08T01:01:04;97778.81;;;2.04;100.00
10470;BME280;5282;47.052;15.458;2024-03-08T01:03:32;97781.13;;;2.09;100.00
10470;BME280;5282;47.052;15.458;2024-03-08T01:06:00;97774.69;;;2.00;100.00
10470;BME280;5282;47.052;15.458;2024-03-08T01:08:27;97771.59;;;2.06;100.00
10470;BME280;5282;47.052;15.458;2024-03-08T01:10:56;97769.25;;;2.02;100.00
10470;BME280;5282;47.052;15.458;2024-03-08T01:13:22;97772.25;;;1.97;100.00
10470;BME280;5282;47.052;15.458;2024-03-08T01:15:52;97772.75;;;2.02;100.00
10470;BME280;5282;47.052;15.458;2024-03-08T01:18:20;97772.13;;;1.98;100.00
10470;BME280;5282;47.052;15.458;2024-03-08T01:20:46;97766.72;;;2.00;100.00
10470;BME280;5282;47.052;15.458;2024-03-08T01:23:13;97772.66;;;1.91;100.00
10470;BME280;5282;47.052;15.458;2024-03-08T01:25:40;97766.72;;;1.87;100.00
10470;BME280;5282;47.052;15.458;2024-03-08T01:28:09;97767.25;;;1.79;100.00
10470;BME280;5282;47.052;15.458;2024-03-08T01:30:36;97762.50;;;1.72;100.00
10470;BME280;5282;47.052;15.458;2024-03-08T01:33:08;97760.34;;;1.64;100.00
10470;BME280;5282;47.052;15.458;2024-03-08T01:35:35;97757.16;;;1.59;100.00
10470;BME280;5282;47.052;15.458;2024-03-08T01:38:02;97758.03;;;1.59;100.00
10470;BME280;5282;47.052;15.458;2024-03-08T01:40:30;97755.88;;;1.51;100.00
10470;BME280;5282;47.052;15.458;2024-03-08T01:42:57;97756.31;;;1.58;100.00
10470;BME280;5282;47.052;15.458;2024-03-08T01:45:25;97748.44;;;1.57;100.00
10470;BME280;5282;47.052;15.458;2024-03-08T01:47:51;97745.06;;;1.54;100.00
10470;BME280;5282;47.052;15.458;2024-03-08T01:50:20;97753.97;;;1.53;100.00
10470;BME280;5282;47.052;15.458;2024-03-08T01:52:47;97752.28;;;1.52;100.00
10470;BME280;5282;47.052;15.458;2024-03-08T01:55:13;97748.00;;;1.50;100.00
10470;BME280;5282;47.052;15.458;2024-03-08T01:57:43;97751.84;;;1.46;100.00
10470;BME280;5282;47.052;15.458;2024-03-08T02:00:11;97757.59;;;1.52;100.00
10470;BME280;5282;47.052;15.458;2024-03-08T02:02:40;97750.50;;;1.66;100.00
10470;BME280;5282;47.052;15.458;2024-03-08T02:05:10;97752.91;;;1.69;100.00
10470;BME280;5282;47.052;15.458;2024-03-08T02:07:41;97755.78;;;1.66;100.00
10470;BME280;5282;47.052;15.458;2024-03-08T02:10:10;97752.91;;;1.56;100.00
10470;BME280;5282;47.052;15.458;2024-03-08T02:12:38;97754.31;;;1.62;100.00
10470;BME280;5282;47.052;15.458;2024-03-08T02:15:07;97754.09;;;1.65;100.00
10470;BME280;5282;47.052;15.458;2024-03-08T02:17:34;97752.06;;;1.56;100.00
10470;BME280;5282;47.052;15.458;2024-03-08T02:20:01;97747.72;;;1.54;100.00
10470;BME280;5282;47.052;15.458;2024-03-08T02:22:31;97750.38;;;1.54;100.00
10470;BME280;5282;47.052;15.458;2024-03-08T02:24:58;97750.38;;;1.54;100.00
10470;BME280;5282;47.052;15.458;2024-03-08T02:27:27;97752.91;;;1.43;100.00
10470;BME280;5282;47.052;15.458;2024-03-08T02:29:56;97751.94;;;1.44;100.00
10470;BME280;5282;47.052;15.458;2024-03-08T02:32:23;97744.84;;;1.45;100.00
10470;BME280;5282;47.052;15.458;2024-03-08T02:34:51;97746.97;;;1.52;100.00
10470;BME280;5282;47.052;15.458;2024-03-08T02:37:19;97753.22;;;1.51;100.00
10470;BME280;5282;47.052;15.458;2024-03-08T02:39:48;97749.31;;;1.57;100.00
10470;BME280;5282;47.052;15.458;2024-03-08T02:42:14;97744.63;;;1.61;100.00
10470;BME280;5282;47.052;15.458;2024-03-08T02:44:42;97746.44;;;1.47;100.00
10470;BME280;5282;47.052;15.458;2024-03-08T02:47:10;97753.13;;;1.40;100.00
10470;BME280;5282;47.052;15.458;2024-03-08T02:49:37;97755.53;;;1.30;100.00
10470;BME280;5282;47.052;15.458;2024-03-08T02:52:06;97748.88;;;1.37;100.00
10470;BME280;5282;47.052;15.458;2024-03-08T02:54:32;97745.28;;;1.51;100.00
10470;BME280;5282;47.052;15.458;2024-03-08T02:57:01;97751.44;;;1.65;100.00
10470;BME280;5282;47.052;15.458;2024-03-08T02:59:29;97754.53;;;1.72;100.00
10470;BME280;5282;47.052;15.458;2024-03-08T03:01:56;97748.88;;;1.76;100.00
10470;BME280;5282;47.052;15.458;2024-03-08T03:04:26;97751.31;;;1.79;100.00
10470;BME280;5282;47.052;15.458;2024-03-08T03:06:53;97740.19;;;1.74;100.00
10470;BME280;5282;47.052;15.458;2024-03-08T03:09:20;97745.56;;;1.73;100.00
10470;BME280;5282;47.052;15.458;2024-03-08T03:11:53;97740.94;;;1.76;100.00
10470;BME280;5282;47.052;15.458;2024-03-08T03:14:22;97745.38;;;1.63;100.00
10470;BME280;5282;47.052;15.458;2024-03-08T03:16:50;97742.09;;;1.72;100.00
10470;BME280;5282;47.052;15.458;2024-03-08T03:19:17;97740.19;;;1.74;100.00
10470;BME280;5282;47.052;15.458;2024-03-08T03:21:49;97737.41;;;1.63;100.00
10470;BME280;5282;47.052;15.458;2024-03-08T03:24:35;97737.63;;;1.60;100.00
10470;BME280;5282;47.052;15.458;2024-03-08T03:27:09;97738.78;;;1.43;100.00
10470;BME280;5282;47.052;15.458;2024-03-08T03:29:41;97738.59;;;1.46;100.00
10470;BME280;5282;47.052;15.458;2024-03-08T03:32:15;97739.75;;;1.67;100.00
10470;BME280;5282;47.052;15.458;2024-03-08T03:34:44;97750.88;;;1.73;100.00
10470;BME280;5282;47.052;15.458;2024-03-08T03:37:11;97737.22;;;1.66;100.00
10470;BME280;5282;47.052;15.458;2024-03-08T03:39:40;97742.50;;;1.53;100.00
10470;BME280;5282;47.052;15.458;2024-03-08T03:42:18;97743.56;;;1.50;100.00
10470;BME280;5282;47.052;15.458;2024-03-08T03:44:51;97740.59;;;1.42;100.00
10470;BME280;5282;47.052;15.458;2024-03-08T03:47:18;97730.41;;;1.36;100.00
10470;BME280;5282;47.052;15.458;2024-03-08T03:49:45;97736.56;;;1.36;100.00
10470;BME280;5282;47.052;15.458;2024-03-08T03:52:12;97743.38;;;1.53;100.00
10470;BME280;5282;47.052;15.458;2024-03-08T03:54:41;97742.72;;;1.63;100.00
10470;BME280;5282;47.052;15.458;2024-03-08T03:57:08;97739.31;;;1.61;100.00
10470;BME280;5282;47.052;15.458;2024-03-08T03:59:35;97736.13;;;1.56;100.00
10470;BME280;5282;47.052;15.458;2024-03-08T04:02:04;97739.22;;;1.49;100.00
10470;BME280;5282;47.052;15.458;2024-03-08T04:04:42;97733.16;;;1.47;100.00
10470;BME280;5282;47.052;15.458;2024-03-08T04:07:11;97740.16;;;1.35;100.00
10470;BME280;5282;47.052;15.458;2024-03-08T04:09:38;97742.72;;;1.63;100.00
10470;BME280;5282;47.052;15.458;2024-03-08T04:12:05;97739.41;;;1.33;100.00
10470;BME280;5282;47.052;15.458;2024-03-08T04:14:33;97744.41;;;1.38;100.00
10470;BME280;5282;47.052;15.458;2024-03-08T04:17:01;97747.84;;;1.66;100.00
10470;BME280;5282;47.052;15.458;2024-03-08T04:19:30;97741.97;;;1.74;100.00
10470;BME280;5282;47.052;15.458;2024-03-08T04:21:57;97744.19;;;1.54;100.00
10470;BME280;5282;47.052;15.458;2024-03-08T04:24:31;97742.50;;;1.53;100.00
10470;BME280;5282;47.052;15.458;2024-03-08T04:27:02;97744.84;;;1.71;100.00
10470;BME280;5282;47.052;15.458;2024-03-08T04:29:30;97750.16;;;1.83;100.00
10470;BME280;5282;47.052;15.458;2024-03-08T04:31:59;97744.09;;;1.94;100.00
10470;BME280;5282;47.052;15.458;2024-03-08T04:34:26;97746.31;;;1.75;100.00
10470;BME280;5282;47.052;15.458;2024-03-08T04:36:56;97749.06;;;1.86;100.00
10470;BME280;5282;47.052;15.458;2024-03-08T04:39:24;97739.50;;;1.96;100.00
10470;BME280;5282;47.052;15.458;2024-03-08T04:41:55;97743.53;;;2.02;100.00
10470;BME280;5282;47.052;15.458;2024-03-08T04:44:23;97747.25;;;1.99;100.00
10470;BME280;5282;47.052;15.458;2024-03-08T04:46:51;97742.06;;;1.98;100.00
10470;BME280;5282;47.052;15.458;2024-03-08T04:49:18;97735.25;;;1.94;100.00
10470;BME280;5282;47.052;15.458;2024-03-08T04:51:47;97746.44;;;1.99;100.00
10470;BME280;5282;47.052;15.458;2024-03-08T04:54:16;97746.63;;;1.96;100.00
10470;BME280;5282;47.052;15.458;2024-03-08T04:56:44;97732.31;;;1.73;100.00
10470;BME280;5282;47.052;15.458;2024-03-08T04:59:11;97738.69;;;1.83;100.00
10470;BME280;5282;47.052;15.458;2024-03-08T05:01:39;97736.00;;;1.96;100.00
10470;BME280;5282;47.052;15.458;2024-03-08T05:04:10;97734.41;;;2.06;100.00
10470;BME280;5282;47.052;15.458;2024-03-08T05:06:37;97737.34;;;2.27;100.00
10470;BME280;5282;47.052;15.458;2024-03-08T05:09:04;97733.06;;;2.38;100.00
10470;BME280;5282;47.052;15.458;2024-03-08T05:11:40;97734.84;;;2.37;100.00
10470;BME280;5282;47.052;15.458;2024-03-08T05:14:08;97737.75;;;2.34;100.00
10470;BME280;5282;47.052;15.458;2024-03-08T05:16:37;97733.25;;;2.35;100.00
10470;BME280;5282;47.052;15.458;2024-03-08T05:19:06;97744.97;;;2.32;100.00
10470;BME280;5282;47.052;15.458;2024-03-08T05:21:33;97736.66;;;2.37;100.00
10470;BME280;5282;47.052;15.458;2024-03-08T05:24:01;97749.00;;;2.38;100.00
10470;BME280;5282;47.052;15.458;2024-03-08T05:26:30;97743.13;;;2.45;100.00
10470;BME280;5282;47.052;15.458;2024-03-08T05:29:00;97745.38;;;2.39;100.00
10470;BME280;5282;47.052;15.458;2024-03-08T05:31:31;97744.63;;;2.37;100.00
10470;BME280;5282;47.052;15.458;2024-03-08T05:34:02;97746.63;;;2.46;100.00
10470;BME280;5282;47.052;15.458;2024-03-08T05:36:49;97744.91;;;2.45;100.00
10470;BME280;5282;47.052;15.458;2024-03-08T05:39:17;97748.38;;;2.34;100.00
10470;BME280;5282;47.052;15.458;2024-03-08T05:41:45;97746.38;;;2.12;100.00
10470;BME280;5282;47.052;15.458;2024-03-08T05:44:14;97751.59;;;2.13;100.00
10470;BME280;5282;47.052;15.458;2024-03-08T05:46:43;97748.22;;;1.98;100.00
10470;BME280;5282;47.052;15.458;2024-03-08T05:49:12;97748.75;;;2.04;100.00
10470;BME280;5282;47.052;15.458;2024-03-08T05:51:40;97748.50;;;2.20;100.00
10470;BME280;5282;47.052;15.458;2024-03-08T05:54:09;97753.19;;;2.16;100.00
10470;BME280;5282;47.052;15.458;2024-03-08T05:56:37;97746.06;;;2.16;100.00
10470;BME280;5282;47.052;15.458;2024-03-08T05:59:05;97750.75;;;2.13;100.00
10470;BME280;5282;47.052;15.458;2024-03-08T06:01:33;97747.63;;;2.19;100.00
10470;BME280;5282;47.052;15.458;2024-03-08T06:04:02;97748.06;;;2.26;100.00
10470;BME280;5282;47.052;15.458;2024-03-08T06:06:29;97747.34;;;2.24;100.00
10470;BME280;5282;47.052;15.458;2024-03-08T06:08:56;97753.28;;;2.27;100.00
10470;BME280;5282;47.052;15.458;2024-03-08T06:11:24;97751.44;;;2.28;100.00
10470;BME280;5282;47.052;15.458;2024-03-08T06:13:52;97747.63;;;2.32;100.00
10470;BME280;5282;47.052;15.458;2024-03-08T06:16:26;97751.25;;;2.31;100.00
10470;BME280;5282;47.052;15.458;2024-03-08T06:18:56;97751.25;;;2.31;100.00
10470;BME280;5282;47.052;15.458;2024-03-08T06:21:23;97755.47;;;2.34;100.00
10470;BME280;5282;47.052;15.458;2024-03-08T06:23:52;97751.94;;;2.46;100.00
10470;BME280;5282;47.052;15.458;2024-03-08T06:26:20;97758.28;;;2.56;100.00
10470;BME280;5282;47.052;15.458;2024-03-08T06:28:47;97757.03;;;2.49;100.00
10470;BME280;5282;47.052;15.458;2024-03-08T06:31:14;97751.78;;;2.60;100.00
10470;BME280;5282;47.052;15.458;2024-03-08T06:33:41;97755.94;;;2.65;100.00
10470;BME280;5282;47.052;15.458;2024-03-08T06:36:10;97755.53;;;2.58;100.00
10470;BME280;5282;47.052;15.458;2024-03-08T06:38:37;97756.16;;;2.49;100.00
10470;BME280;5282;47.052;15.458;2024-03-08T06:41:08;97763.94;;;2.52;100.00
10470;BME280;5282;47.052;15.458;2024-03-08T06:43:34;97765.81;;;2.62;100.00
10470;BME280;5282;47.052;15.458;2024-03-08T06:46:01;97764.41;;;2.70;100.00
10470;BME280;5282;47.052;15.458;2024-03-08T06:48:29;97769.44;;;2.86;100.00
10470;BME280;5282;47.052;15.458;2024-03-08T06:50:56;97770.44;;;2.96;100.00
10470;BME280;5282;47.052;15.458;2024-03-08T06:53:24;97765.38;;;2.93;100.00
10470;BME280;5282;47.052;15.458;2024-03-08T06:55:51;97763.81;;;3.02;100.00
10470;BME280;5282;47.052;15.458;2024-03-08T06:58:19;97763.22;;;2.98;100.00
10470;BME280;5282;47.052;15.458;2024-03-08T07:00:46;97765.91;;;3.09;100.00
10470;BME280;5282;47.052;15.458;2024-03-08T07:03:17;97765.75;;;3.24;100.00
10470;BME280;5282;47.052;15.458;2024-03-08T07:05:44;97767.53;;;3.23;100.00
10470;BME280;5282;47.052;15.458;2024-03-08T07:08:11;97764.38;;;3.18;100.00
10470;BME280;5282;47.052;15.458;2024-03-08T07:10:40;97761.28;;;3.00;100.00
10470;BME280;5282;47.052;15.458;2024-03-08T07:13:08;97771.47;;;2.82;100.00
10470;BME280;5282;47.052;15.458;2024-03-08T07:15:35;97766.50;;;3.02;100.00
10470;BME280;5282;47.052;15.458;2024-03-08T07:18:02;97765.38;;;3.29;100.00
10470;BME280;5282;47.052;15.458;2024-03-08T07:20:29;97766.53;;;3.49;100.00
10470;BME280;5282;47.052;15.458;2024-03-08T07:22:57;97766.81;;;3.68;100.00
10470;BME280;5282;47.052;15.458;2024-03-08T07:25:24;97765.88;;;3.81;100.00
10470;BME280;5282;47.052;15.458;2024-03-08T07:27:56;97765.13;;;3.79;100.00
10470;BME280;5282;47.052;15.458;2024-03-08T07:30:26;97759.94;;;3.77;100.00
10470;BME280;5282;47.052;15.458;2024-03-08T07:33:10;97766.59;;;3.72;100.00
10470;BME280;5282;47.052;15.458;2024-03-08T07:35:38;97770.22;;;3.70;100.00
10470;BME280;5282;47.052;15.458;2024-03-08T07:38:05;97772.16;;;3.68;100.00
10470;BME280;5282;47.052;15.458;2024-03-08T07:40:35;97768.25;;;3.50;100.00
10470;BME280;5282;47.052;15.458;2024-03-08T07:43:03;97777.91;;;3.51;100.00
10470;BME280;5282;47.052;15.458;2024-03-08T07:45:30;97783.13;;;3.52;100.00
10470;BME280;5282;47.052;15.458;2024-03-08T07:47:57;97789.88;;;3.45;100.00
10470;BME280;5282;47.052;15.458;2024-03-08T07:50:24;97783.44;;;3.36;100.00
10470;BME280;5282;47.052;15.458;2024-03-08T07:52:51;97783.44;;;3.36;100.00
10470;BME280;5282;47.052;15.458;2024-03-08T07:55:18;97788.72;;;3.25;100.00
10470;BME280;5282;47.052;15.458;2024-03-08T07:57:45;97790.53;;;3.24;100.00
10470;BME280;5282;47.052;15.458;2024-03-08T08:00:15;97784.59;;;3.21;100.00
10470;BME280;5282;47.052;15.458;2024-03-08T08:02:45;97786.75;;;3.16;100.00
10470;BME280;5282;47.052;15.458;2024-03-08T08:05:12;97787.47;;;3.18;100.00
10470;BME280;5282;47.052;15.458;2024-03-08T08:07:39;97789.69;;;2.75;100.00
10470;BME280;5282;47.052;15.458;2024-03-08T08:10:09;97800.06;;;2.54;100.00
10470;BME280;5282;47.052;15.458;2024-03-08T08:12:45;97800.53;;;2.72;100.00
10470;BME280;5282;47.052;15.458;2024-03-08T08:15:14;97795.88;;;3.00;100.00
10470;BME280;5282;47.052;15.458;2024-03-08T08:17:41;97801.25;;;3.12;100.00
10470;BME280;5282;47.052;15.458;2024-03-08T08:20:09;97797.63;;;3.13;100.00
10470;BME280;5282;47.052;15.458;2024-03-08T08:22:37;97798.38;;;3.15;100.00
10470;BME280;5282;47.052;15.458;2024-03-08T08:25:05;97792.19;;;2.90;100.00
10470;BME280;5282;47.052;15.458;2024-03-08T08:27:32;97791.66;;;2.60;100.00
10470;BME280;5282;47.052;15.458;2024-03-08T08:29:58;97795.41;;;2.82;100.00
10470;BME280;5282;47.052;15.458;2024-03-08T08:32:27;97795.16;;;2.61;100.00
10470;BME280;5282;47.052;15.458;2024-03-08T08:34:54;97793.22;;;3.00;100.00
10470;BME280;5282;47.052;15.458;2024-03-08T08:37:21;97794.13;;;2.88;100.00
10470;BME280;5282;47.052;15.458;2024-03-08T08:39:49;97790.56;;;3.00;100.00
10470;BME280;5282;47.052;15.458;2024-03-08T08:42:17;97793.84;;;2.80;100.00
10470;BME280;5282;47.052;15.458;2024-03-08T08:44:44;97790.91;;;2.96;100.00
10470;BME280;5282;47.052;15.458;2024-03-08T08:47:12;97791.28;;;3.02;100.00
10470;BME280;5282;47.052;15.458;2024-03-08T08:49:40;97798.09;;;3.42;100.00
10470;BME280;5282;47.052;15.458;2024-03-08T08:52:08;97790.53;;;3.60;100.00
10470;BME280;5282;47.052;15.458;2024-03-08T08:54:35;97785.47;;;3.68;100.00
10470;BME280;5282;47.052;15.458;2024-03-08T08:57:02;97780.28;;;3.78;100.00
10470;BME280;5282;47.052;15.458;2024-03-08T08:59:33;97782.31;;;3.75;100.00
10470;BME280;5282;47.052;15.458;2024-03-08T09:02:01;97781.63;;;3.84;100.00
10470;BME280;5282;47.052;15.458;2024-03-08T09:04:29;97775.41;;;3.72;100.00
10470;BME280;5282;47.052;15.458;2024-03-08T09:06:57;97778.69;;;3.87;100.00
10470;BME280;5282;47.052;15.458;2024-03-08T09:09:24;97783.31;;;3.85;100.00
10470;BME280;5282;47.052;15.458;2024-03-08T09:11:51;97779.44;;;3.89;100.00
10470;BME280;5282;47.052;15.458;2024-03-08T09:14:19;97783.97;;;3.64;100.00
10470;BME280;5282;47.052;15.458;2024-03-08T09:16:47;97778.59;;;3.89;100.00
10470;BME280;5282;47.052;15.458;2024-03-08T09:19:13;97779.66;;;3.86;100.00
10470;BME280;5282;47.052;15.458;2024-03-08T09:21:40;97775.56;;;4.16;100.00
10470;BME280;5282;47.052;15.458;2024-03-08T09:24:08;97768.53;;;4.38;100.00
10470;BME280;5282;47.052;15.458;2024-03-08T09:26:36;97763.91;;;4.51;100.00
10470;BME280;5282;47.052;15.458;2024-03-08T09:29:02;97762.69;;;4.44;100.00
10470;BME280;5282;47.052;15.458;2024-03-08T09:31:31;97767.34;;;4.19;100.00
10470;BME280;5282;47.052;15.458;2024-03-08T09:33:57;97769.88;;;4.09;100.00
10470;BME280;5282;47.052;15.458;2024-03-08T09:36:25;97766.13;;;4.12;100.00
10470;BME280;5282;47.052;15.458;2024-03-08T09:38:53;97764.31;;;4.24;100.00
10470;BME280;5282;47.052;15.458;2024-03-08T09:41:21;97759.44;;;3.95;100.00
10470;BME280;5282;47.052;15.458;2024-03-08T09:43:48;97759.44;;;3.83;100.00
10470;BME280;5282;47.052;15.458;2024-03-08T09:46:15;97764.31;;;4.12;100.00
10470;BME280;5282;47.052;15.458;2024-03-08T09:48:46;97767.34;;;4.08;100.00
10470;BME280;5282;47.052;15.458;2024-03-08T09:51:16;97761.28;;;4.28;100.00
10470;BME280;5282;47.052;15.458;2024-03-08T09:53:43;97751.00;;;4.79;100.00
10470;BME280;5282;47.052;15.458;2024-03-08T09:56:11;97755.25;;;4.82;100.00
10470;BME280;5282;47.052;15.458;2024-03-08T09:58:39;97746.69;;;4.44;100.00
10470;BME280;5282;47.052;15.458;2024-03-08T10:01:27;97754.66;;;4.67;100.00
10470;BME280;5282;47.052;15.458;2024-03-08T10:03:54;97755.09;;;4.83;100.00
10470;BME280;5282;47.052;15.458;2024-03-08T10:06:22;97753.44;;;5.15;100.00
10470;BME280;5282;47.052;15.458;2024-03-08T10:08:50;97748.09;;;5.36;100.00
10470;BME280;5282;47.052;15.458;2024-03-08T10:11:18;97753.47;;;5.24;100.00
10470;BME280;5282;47.052;15.458;2024-03-08T10:13:47;97754.97;;;5.17;100.00
10470;BME280;5282;47.052;15.458;2024-03-08T10:16:14;97758.13;;;5.65;100.00
10470;BME280;5282;47.052;15.458;2024-03-08T10:18:42;97754.72;;;6.05;100.00
10470;BME280;5282;47.052;15.458;2024-03-08T10:21:09;97742.94;;;6.17;100.00
10470;BME280;5282;47.052;15.458;2024-03-08T10:23:36;97751.66;;;6.51;100.00
10470;BME280;5282;47.052;15.458;2024-03-08T10:26:11;97747.91;;;6.22;100.00
10470;BME280;5282;47.052;15.458;2024-03-08T10:28:41;97748.69;;;6.44;100.00
10470;BME280;5282;47.052;15.458;2024-03-08T10:31:10;97747.66;;;6.76;100.00
10470;BME280;5282;47.052;15.458;2024-03-08T10:33:37;97742.03;;;7.18;100.00
10470;BME280;5282;47.052;15.458;2024-03-08T10:36:06;97740.88;;;6.82;100.00
10470;BME280;5282;47.052;15.458;2024-03-08T10:38:36;97741.88;;;6.90;100.00
10470;BME280;5282;47.052;15.458;2024-03-08T10:41:05;97749.53;;;6.44;100.00
10470;BME280;5282;47.052;15.458;2024-03-08T10:43:40;97741.69;;;6.62;100.00
10470;BME280;5282;47.052;15.458;2024-03-08T10:46:21;97745.53;;;6.79;100.00
10470;BME280;5282;47.052;15.458;2024-03-08T10:48:52;97741.16;;;6.28;100.00
10470;BME280;5282;47.052;15.458;2024-03-08T10:51:22;97738.88;;;5.92;100.00
10470;BME280;5282;47.052;15.458;2024-03-08T10:53:49;97736.38;;;6.72;100.00
10470;BME280;5282;47.052;15.458;2024-03-08T10:56:17;97737.78;;;6.76;100.00
10470;BME280;5282;47.052;15.458;2024-03-08T10:58:45;97736.25;;;7.33;100.00
10470;BME280;5282;47.052;15.458;2024-03-08T11:01:14;97733.94;;;7.77;100.00
10470;BME280;5282;47.052;15.458;2024-03-08T11:03:44;97726.19;;;8.49;100.00
10470;BME280;5282;47.052;15.458;2024-03-08T11:06:17;97727.13;;;7.83;100.00
10470;BME280;5282;47.052;15.458;2024-03-08T11:08:49;97717.94;;;8.61;100.00
10470;BME280;5282;47.052;15.458;2024-03-08T11:11:27;97714.53;;;8.31;98.29
10470;BME280;5282;47.052;15.458;2024-03-08T11:13:55;97711.34;;;8.45;83.96
10470;BME280;5282;47.052;15.458;2024-03-08T11:16:38;97713.47;;;7.86;88.54
10470;BME280;5282;47.052;15.458;2024-03-08T11:19:24;97709.94;;;8.41;85.18
10470;BME280;5282;47.052;15.458;2024-03-08T11:22:00;97706.16;;;8.44;85.75
10470;BME280;5282;47.052;15.458;2024-03-08T11:24:27;97702.16;;;8.76;82.96
10470;BME280;5282;47.052;15.458;2024-03-08T11:26:57;97703.38;;;8.63;85.60
10470;BME280;5282;47.052;15.458;2024-03-08T11:29:33;97707.56;;;8.10;91.02
10470;BME280;5282;47.052;15.458;2024-03-08T11:32:07;97700.34;;;7.73;98.54
10470;BME280;5282;47.052;15.458;2024-03-08T11:34:34;97702.38;;;8.09;97.77
10470;BME280;5282;47.052;15.458;2024-03-08T11:37:04;97700.63;;;7.80;92.66
10470;BME280;5282;47.052;15.458;2024-03-08T11:39:30;97697.97;;;8.36;96.40
10470;BME280;5282;47.052;15.458;2024-03-08T11:42:00;97696.53;;;8.41;86.43
10470;BME280;5282;47.052;15.458;2024-03-08T11:44:27;97689.72;;;7.91;86.31
10470;BME280;5282;47.052;15.458;2024-03-08T11:46:54;97674.94;;;8.43;88.50
10470;BME280;5282;47.052;15.458;2024-03-08T11:49:22;97671.53;;;9.23;87.46
10470;BME280;5282;47.052;15.458;2024-03-08T11:51:52;97660.63;;;9.24;77.72
10470;BME280;5282;47.052;15.458;2024-03-08T11:54:19;97666.13;;;9.41;76.38
10470;BME280;5282;47.052;15.458;2024-03-08T11:56:46;97666.91;;;9.15;75.47
10470;BME280;5282;47.052;15.458;2024-03-08T11:59:14;97661.50;;;9.07;75.83
10470;BME280;5282;47.052;15.458;2024-03-08T12:01:41;97661.53;;;9.15;78.54
10470;BME280;5282;47.052;15.458;2024-03-08T12:04:12;97660.22;;;9.37;75.44
10470;BME280;5282;47.052;15.458;2024-03-08T12:06:41;97651.44;;;9.53;76.50
10470;BME280;5282;47.052;15.458;2024-03-08T12:09:10;97655.84;;;9.63;72.58
10470;BME280;5282;47.052;15.458;2024-03-08T12:11:38;97655.16;;;9.34;70.58
10470;BME280;5282;47.052;15.458;2024-03-08T12:14:06;97656.81;;;8.27;81.78
10470;BME280;5282;47.052;15.458;2024-03-08T12:16:33;97650.00;;;8.32;82.45
10470;BME280;5282;47.052;15.458;2024-03-08T12:19:00;97643.88;;;8.86;82.76
10470;BME280;5282;47.052;15.458;2024-03-08T12:21:31;97642.47;;;9.00;79.11
10470;BME280;5282;47.052;15.458;2024-03-08T12:24:06;97643.22;;;8.92;78.67
10470;BME280;5282;47.052;15.458;2024-03-08T12:26:35;97641.94;;;8.97;80.07
10470;BME280;5282;47.052;15.458;2024-03-08T12:29:20;97638.72;;;8.75;81.04
10470;BME280;5282;47.052;15.458;2024-03-08T12:31:51;97640.28;;;8.31;79.31
10470;BME280;5282;47.052;15.458;2024-03-08T12:34:18;97634.88;;;8.13;88.03
10470;BME280;5282;47.052;15.458;2024-03-08T12:36:46;97636.88;;;7.74;93.47
10470;BME280;5282;47.052;15.458;2024-03-08T12:39:19;97632.03;;;7.87;97.07
10470;BME280;5282;47.052;15.458;2024-03-08T12:41:52;97623.22;;;7.95;100.00
10470;BME280;5282;47.052;15.458;2024-03-08T12:44:19;97635.94;;;7.55;100.00
10470;BME280;5282;47.052;15.458;2024-03-08T12:46:47;97625.66;;;7.88;100.00
10470;BME280;5282;47.052;15.458;2024-03-08T12:49:14;97619.84;;;7.65;100.00
10470;BME280;5282;47.052;15.458;2024-03-08T12:51:43;97622.56;;;7.55;100.00
10470;BME280;5282;47.052;15.458;2024-03-08T12:54:10;97610.66;;;8.05;100.00
10470;BME280;5282;47.052;15.458;2024-03-08T12:56:39;97617.50;;;8.36;100.00
10470;BME280;5282;47.052;15.458;2024-03-08T12:59:06;97617.03;;;7.94;100.00
10470;BME280;5282;47.052;15.458;2024-03-08T13:01:34;97617.91;;;7.57;100.00
10470;BME280;5282;47.052;15.458;2024-03-08T13:04:03;97609.50;;;7.32;100.00
10470;BME280;5282;47.052;15.458;2024-03-08T13:06:32;97612.31;;;7.40;100.00
10470;BME280;5282;47.052;15.458;2024-03-08T13:08:59;97611.25;;;7.89;100.00
10470;BME280;5282;47.052;15.458;2024-03-08T13:11:31;97607.19;;;8.13;100.00